createdAt,value
2018-06-12T00:00:28.145Z,5.93
2018-06-12T00:02:58.761Z,5.20
2018-06-12T00:06:12.057Z,6.83
2018-06-12T00:08:42.179Z,6.07
2018-06-12T00:11:12.263Z,5.50
2018-06-12T00:13:42.594Z,5.83
2018-06-12T00:16:12.585Z,5.60
2018-06-12T00:18:42.623Z,6.27
2018-06-12T00:21:18.127Z,5.90
2018-06-12T00:23:49.780Z,5.83
2018-06-12T00:26:28.881Z,5.77
2018-06-12T00:28:59.535Z,5.60
2018-06-12T00:31:31.012Z,5.70
2018-06-12T00:34:01.210Z,5.90
2018-06-12T00:36:31.476Z,6.20
2018-06-12T00:39:01.503Z,5.70
2018-06-12T00:41:31.483Z,6.20
2018-06-12T00:44:01.917Z,6.77
2018-06-12T00:46:33.104Z,6.10
2018-06-12T00:49:03.271Z,6.57
2018-06-12T00:51:34.112Z,5.97
2018-06-12T00:56:59.829Z,6.30
2018-06-12T00:59:29.877Z,6.23
2018-06-12T01:02:01.148Z,6.17
2018-06-12T01:04:31.180Z,7.50
2018-06-12T01:07:01.865Z,6.77
2018-06-12T01:09:31.688Z,6.73
2018-06-12T01:12:01.656Z,6.47
2018-06-12T01:14:31.762Z,5.93
2018-06-12T01:17:01.484Z,6.97
2018-06-12T01:19:31.326Z,6.43
2018-06-12T01:22:01.119Z,5.70
2018-06-12T01:24:32.205Z,6.73
2018-06-12T01:27:01.963Z,6.40
2018-06-12T01:29:31.774Z,6.73
2018-06-12T01:32:02.484Z,5.77
2018-06-12T01:34:36.164Z,6.50
2018-06-12T01:37:07.265Z,6.20
2018-06-12T01:39:37.246Z,6.70
2018-06-12T01:42:14.999Z,6.23
2018-06-12T01:44:44.876Z,6.17
2018-06-12T01:47:14.972Z,5.93
2018-06-12T01:49:45.458Z,5.30
2018-06-12T01:52:16.222Z,5.57
2018-06-12T01:54:46.695Z,6.10
2018-06-12T01:57:18.242Z,6.73
2018-06-12T01:59:48.336Z,6.47
2018-06-12T02:02:18.213Z,7.00
2018-06-12T02:04:48.151Z,5.83
2018-06-12T02:07:18.480Z,5.93
2018-06-12T02:09:48.259Z,5.80
2018-06-12T02:12:17.996Z,6.10
2018-06-12T02:14:47.698Z,5.83
2018-06-12T02:17:17.830Z,6.07
2018-06-12T02:19:47.688Z,5.77
2018-06-12T02:22:18.080Z,5.80
2018-06-12T02:27:42.426Z,5.83
2018-06-12T02:30:12.303Z,6.33
2018-06-12T02:32:42.328Z,6.57
2018-06-12T02:38:00.325Z,7.20
2018-06-12T02:40:30.093Z,7.30
2018-06-12T02:43:00.074Z,7.07
2018-06-12T02:45:30.680Z,7.93
2018-06-12T02:48:00.445Z,8.33
2018-06-12T02:50:30.268Z,7.63
2018-06-12T02:53:01.485Z,7.03
2018-06-12T02:55:31.175Z,8.00
2018-06-12T02:58:01.289Z,7.03
2018-06-12T03:00:31.072Z,6.97
2018-06-12T03:03:00.884Z,8.03
2018-06-12T03:05:30.798Z,8.03
2018-06-12T03:08:05.245Z,7.90
2018-06-12T03:10:35.083Z,7.50
2018-06-12T03:13:05.042Z,7.90
2018-06-12T03:15:34.775Z,8.43
2018-06-12T03:18:05.925Z,7.73
2018-06-12T03:20:42.187Z,8.00
2018-06-12T03:23:11.979Z,7.70
2018-06-12T03:25:42.314Z,8.30
2018-06-12T03:28:12.093Z,7.90
2018-06-12T03:30:42.407Z,7.70
2018-06-12T03:33:12.554Z,8.23
2018-06-12T03:35:42.775Z,8.87
2018-06-12T03:38:12.576Z,8.80
2018-06-12T03:40:42.460Z,7.33
2018-06-12T03:43:12.194Z,8.33
2018-06-12T03:45:41.908Z,8.10
2018-06-12T03:48:15.825Z,8.30
2018-06-12T03:50:45.596Z,9.13
2018-06-12T03:53:15.441Z,8.50
2018-06-12T03:55:45.206Z,7.87
2018-06-12T03:58:14.930Z,9.50
2018-06-12T04:00:44.618Z,9.53
2018-06-12T04:03:15.710Z,8.80
2018-06-12T04:05:45.669Z,9.03
2018-06-12T04:08:15.571Z,8.70
2018-06-12T04:10:45.457Z,8.57
2018-06-12T04:13:16.589Z,8.50
2018-06-12T04:15:46.373Z,8.73
2018-06-12T04:18:16.269Z,8.57
2018-06-12T04:20:47.809Z,8.57
2018-06-12T04:23:19.355Z,10.17
2018-06-12T04:25:49.389Z,9.20
2018-06-12T04:28:19.368Z,9.83
2018-06-12T04:30:50.662Z,9.87
2018-06-12T04:33:21.797Z,10.37
2018-06-12T04:35:51.548Z,9.70
2018-06-12T04:38:21.422Z,9.23
2018-06-12T04:40:52.092Z,10.10
2018-06-12T04:43:28.440Z,9.60
2018-06-12T04:45:58.641Z,9.63
2018-06-12T04:48:28.381Z,10.00
2018-06-12T04:50:59.496Z,10.87
2018-06-12T04:53:29.289Z,10.00
2018-06-12T04:56:00.348Z,11.23
2018-06-12T04:58:30.560Z,11.03
2018-06-12T05:01:00.476Z,11.07
2018-06-12T05:03:31.794Z,11.37
2018-06-12T05:06:05.245Z,11.23
2018-06-12T05:08:35.215Z,12.83
2018-06-12T05:14:15.822Z,11.93
2018-06-12T05:16:45.978Z,11.17
2018-06-12T05:19:16.401Z,12.50
2018-06-12T05:21:46.560Z,12.23
2018-06-12T05:24:19.168Z,13.07
2018-06-12T05:26:48.948Z,13.10
2018-06-12T05:29:18.937Z,12.77
2018-06-12T05:31:54.446Z,13.07
2018-06-12T05:34:24.592Z,14.27
2018-06-12T05:36:54.491Z,13.10
2018-06-12T05:39:24.605Z,14.87
2018-06-12T05:41:54.543Z,14.53
2018-06-12T05:44:24.505Z,13.40
2018-06-12T05:46:58.447Z,13.20
2018-06-12T05:49:29.893Z,14.43
2018-06-12T05:51:59.777Z,13.93
2018-06-12T05:54:30.986Z,13.00
2018-06-12T05:57:11.231Z,13.20
2018-06-12T05:59:48.081Z,13.67
2018-06-12T06:02:27.020Z,13.33
2018-06-12T06:04:59.089Z,13.20
2018-06-12T06:07:29.284Z,12.50
2018-06-12T06:10:04.742Z,12.70
2018-06-12T06:12:38.429Z,12.93
2018-06-12T06:15:08.757Z,11.87
2018-06-12T06:17:38.707Z,12.53
2018-06-12T06:20:11.272Z,13.17
2018-06-12T06:22:41.095Z,14.13
2018-06-12T06:25:11.794Z,12.17
2018-06-12T06:27:41.992Z,11.20
2018-06-12T06:30:12.098Z,11.27
2018-06-12T06:32:42.047Z,10.10
2018-06-12T06:35:13.638Z,10.70
2018-06-12T06:37:43.465Z,10.67
2018-06-12T06:40:13.543Z,10.07
2018-06-12T06:42:45.280Z,10.60
2018-06-12T06:45:17.381Z,10.87
2018-06-12T06:47:47.826Z,11.70
2018-06-12T06:50:17.841Z,11.47
2018-06-12T06:52:47.926Z,11.43
2018-06-12T06:55:18.201Z,10.80
2018-06-12T06:57:48.482Z,9.93
2018-06-12T07:00:18.792Z,10.83
2018-06-12T07:02:48.767Z,11.03
2018-06-12T07:05:18.751Z,11.73
2018-06-12T07:07:48.721Z,11.10
2018-06-12T07:10:18.811Z,11.60
2018-06-12T07:12:48.966Z,10.53
2018-06-12T07:15:18.881Z,10.40
2018-06-12T07:17:49.920Z,10.80
2018-06-12T07:21:29.778Z,10.47
2018-06-12T07:23:59.783Z,10.80
2018-06-12T07:26:29.576Z,9.70
2018-06-12T07:28:59.305Z,10.60
2018-06-12T07:31:33.138Z,9.00
2018-06-12T07:34:02.862Z,9.17
2018-06-12T07:36:32.872Z,9.40
2018-06-12T07:39:02.972Z,8.93
2018-06-12T07:41:32.713Z,9.77
2018-06-12T07:44:02.601Z,10.43
2018-06-12T07:46:35.960Z,10.97
2018-06-12T07:49:05.809Z,9.60
2018-06-12T07:51:35.548Z,9.50
2018-06-12T07:54:05.537Z,10.03
2018-06-12T07:56:35.305Z,9.53
2018-06-12T07:59:04.957Z,8.70
2018-06-12T08:01:42.041Z,9.33
2018-06-12T08:04:13.639Z,9.37
2018-06-12T08:06:43.402Z,9.33
2018-06-12T08:09:14.528Z,9.60
2018-06-12T08:11:44.491Z,9.30
2018-06-12T08:14:14.192Z,9.47
2018-06-12T08:16:44.190Z,9.40
2018-06-12T08:19:14.009Z,9.20
2018-06-12T08:21:43.785Z,8.30
2018-06-12T08:24:13.753Z,9.37
2018-06-12T08:26:43.476Z,9.57
2018-06-12T08:29:13.192Z,9.20
2018-06-12T08:31:43.305Z,9.10
2018-06-12T08:34:13.013Z,8.47
2018-06-12T08:36:42.769Z,9.30
2018-06-12T08:39:12.764Z,8.97
2018-06-12T08:41:42.456Z,9.60
2018-06-12T08:44:12.163Z,8.87
2018-06-12T08:46:43.266Z,9.30
2018-06-12T08:49:13.074Z,8.50
2018-06-12T08:51:42.849Z,8.10
2018-06-12T08:54:18.142Z,9.57
2018-06-12T08:56:56.274Z,9.80
2018-06-12T08:59:26.271Z,8.90
2018-06-12T09:01:56.376Z,9.57
2018-06-12T09:04:26.289Z,7.93
2018-06-12T09:06:56.554Z,8.60
2018-06-12T09:09:26.325Z,7.73
2018-06-12T09:11:56.475Z,8.30
2018-06-12T09:14:28.508Z,7.50
2018-06-12T09:16:58.359Z,7.77
2018-06-12T09:19:28.232Z,7.27
2018-06-12T09:21:58.225Z,6.33
2018-06-12T09:24:28.200Z,6.53
2018-06-12T09:26:57.962Z,5.73
2018-06-12T09:29:34.315Z,6.50
2018-06-12T09:32:04.029Z,6.33
2018-06-12T09:34:35.152Z,4.87
2018-06-12T09:37:06.284Z,4.77
2018-06-12T09:39:35.985Z,4.80
2018-06-12T09:42:05.855Z,4.23
2018-06-12T09:44:35.811Z,3.57
2018-06-12T09:47:05.581Z,3.73
2018-06-12T09:49:34.207Z,4.37
2018-06-12T09:52:04.229Z,4.90
2018-06-12T09:54:34.109Z,6.27
2018-06-12T09:57:03.985Z,7.30
2018-06-12T09:59:34.137Z,6.97
2018-06-12T10:02:03.920Z,6.80
2018-06-12T10:04:33.653Z,6.83
2018-06-12T10:07:04.761Z,6.03
2018-06-12T10:09:34.512Z,5.40
2018-06-12T10:12:04.611Z,5.50
2018-06-12T10:14:34.732Z,5.50
2018-06-12T10:17:15.608Z,4.93
2018-06-12T10:19:45.744Z,4.77
2018-06-12T10:22:15.867Z,4.13
2018-06-12T10:24:46.419Z,3.90
2018-06-12T10:27:18.562Z,4.10
2018-06-12T10:29:48.234Z,5.53
2018-06-12T10:32:18.022Z,4.00
2018-06-12T10:34:48.096Z,3.97
2018-06-12T10:37:18.105Z,4.37
2018-06-12T10:39:48.145Z,4.00
2018-06-12T10:42:18.191Z,4.17
2018-06-12T10:44:48.033Z,3.83
2018-06-12T10:47:17.820Z,4.00
2018-06-12T10:49:47.996Z,4.63
2018-06-12T10:52:17.882Z,4.50
2018-06-12T10:54:47.679Z,4.10
2018-06-12T10:57:19.891Z,3.90
2018-06-12T10:59:49.740Z,3.57
2018-06-12T11:02:19.620Z,3.73
2018-06-12T11:04:51.029Z,3.57
2018-06-12T11:07:20.962Z,4.20
2018-06-12T11:09:50.796Z,4.17
2018-06-12T11:12:21.041Z,4.07
2018-06-12T11:14:50.779Z,4.20
2018-06-12T11:17:20.625Z,4.50
2018-06-12T11:19:50.682Z,3.80
2018-06-12T11:22:20.792Z,3.87
2018-06-12T11:24:50.616Z,3.80
2018-06-12T11:27:20.671Z,4.60
2018-06-12T11:29:50.538Z,3.93
2018-06-12T11:32:20.599Z,4.93
2018-06-12T11:34:55.823Z,5.43
2018-06-12T11:37:25.938Z,3.30
2018-06-12T11:39:55.750Z,3.73
2018-06-12T11:42:25.973Z,4.70
2018-06-12T11:44:55.695Z,4.23
2018-06-12T11:47:25.688Z,4.40
2018-06-12T11:49:55.764Z,5.27
2018-06-12T11:52:25.642Z,5.77
2018-06-12T11:54:55.344Z,5.53
2018-06-12T11:57:26.502Z,8.00
2018-06-12T11:59:56.480Z,7.53
2018-06-12T12:02:26.740Z,8.40
2018-06-12T12:04:56.750Z,9.07
2018-06-12T12:07:26.844Z,8.70
2018-06-12T12:09:57.089Z,10.97
2018-06-12T12:12:27.264Z,12.50
2018-06-12T12:14:57.026Z,16.53
2018-06-12T12:17:27.362Z,18.20
2018-06-12T12:19:57.527Z,21.17
2018-06-12T12:22:27.689Z,23.97
2018-06-12T12:24:58.390Z,22.63
2018-06-12T12:27:28.621Z,27.10
2018-06-12T12:30:01.582Z,24.80
2018-06-12T12:32:31.792Z,26.87
2018-06-12T12:35:02.200Z,28.03
2018-06-12T12:37:33.568Z,23.80
2018-06-12T12:40:06.232Z,19.67
2018-06-12T12:42:36.213Z,17.50
2018-06-12T12:45:06.679Z,17.13
2018-06-12T12:47:37.534Z,12.13
2018-06-12T12:50:07.460Z,12.50
2018-06-12T12:52:37.427Z,16.80
2018-06-12T12:55:08.199Z,14.83
2018-06-12T12:57:38.377Z,16.63
2018-06-12T13:00:08.405Z,18.20
2018-06-12T13:02:38.965Z,16.43
2018-06-12T13:05:08.721Z,21.40
2018-06-12T13:07:38.712Z,21.33
2018-06-12T13:10:08.889Z,21.43
2018-06-12T13:12:38.999Z,23.17
2018-06-12T13:15:13.490Z,21.63
2018-06-12T13:17:48.332Z,21.90
2018-06-12T13:22:53.658Z,20.87
2018-06-12T13:25:23.830Z,19.13
2018-06-12T13:27:54.161Z,19.10
2018-06-12T13:34:01.014Z,18.13
2018-06-12T13:36:31.980Z,21.30
2018-06-12T13:39:08.459Z,19.90
2018-06-12T13:41:58.563Z,19.93
2018-06-12T13:44:28.528Z,19.73
2018-06-12T13:46:58.527Z,18.17
2018-06-12T13:49:28.739Z,19.10
2018-06-12T13:51:59.280Z,17.93
2018-06-12T13:54:43.162Z,19.93
2018-06-12T13:57:13.613Z,17.70
2018-06-12T13:59:43.664Z,18.93
2018-06-12T14:02:16.170Z,20.60
2018-06-12T14:05:07.177Z,23.47
2018-06-12T14:07:37.966Z,22.07
2018-06-12T14:10:08.734Z,20.60
2018-06-12T14:12:38.851Z,22.07
2018-06-12T14:15:09.217Z,21.80
2018-06-12T14:17:41.340Z,24.47
2018-06-12T14:20:16.744Z,23.23
2018-06-12T14:22:47.408Z,24.47
2018-06-12T14:25:19.780Z,25.23
2018-06-12T14:27:53.278Z,20.90
2018-06-12T14:30:31.990Z,21.97
2018-06-12T14:33:09.807Z,23.53
2018-06-12T14:35:48.748Z,25.30
2018-06-12T14:38:28.666Z,22.83
2018-06-12T14:41:01.083Z,22.37
2018-06-12T14:43:33.733Z,23.20
2018-06-12T14:46:04.228Z,24.90
2018-06-12T14:48:35.439Z,18.33
2018-06-12T14:51:06.164Z,19.97
2018-06-12T14:53:38.474Z,18.57
2018-06-12T14:56:10.210Z,17.87
2018-06-12T14:58:42.425Z,14.93
2018-06-12T15:01:13.141Z,16.13
2018-06-12T15:03:44.504Z,16.27
2018-06-12T15:09:12.804Z,19.50
2018-06-12T15:11:43.041Z,19.43
2018-06-12T15:14:13.146Z,16.83
2018-06-12T15:16:46.919Z,17.67
2018-06-12T15:19:18.059Z,15.00
2018-06-12T15:25:31.008Z,15.60
2018-06-12T15:28:02.592Z,17.87
2018-06-12T15:30:34.148Z,15.50
2018-06-12T15:33:14.131Z,16.83
2018-06-12T15:38:43.189Z,15.60
2018-06-12T15:41:17.574Z,14.53
2018-06-12T15:43:59.095Z,18.27
2018-06-12T15:46:29.625Z,16.83
2018-06-12T15:49:01.825Z,17.53
2018-06-12T15:51:32.053Z,19.87
2018-06-12T15:54:02.369Z,21.50
2018-06-12T15:56:33.097Z,18.10
2018-06-12T15:59:03.912Z,18.37
2018-06-12T16:01:34.216Z,18.67
2018-06-12T16:04:04.301Z,18.40
2018-06-12T16:06:34.787Z,19.00
2018-06-12T16:09:09.094Z,19.60
2018-06-12T16:11:45.544Z,22.87
2018-06-12T16:14:15.866Z,21.37
2018-06-12T16:16:46.186Z,21.90
2018-06-12T16:19:16.387Z,19.27
2018-06-12T16:21:46.917Z,19.77
2018-06-12T16:24:17.084Z,17.63
2018-06-12T16:26:47.202Z,19.30
2018-06-12T16:29:17.536Z,18.50
2018-06-12T16:35:19.724Z,16.90
2018-06-12T16:41:13.190Z,16.53
2018-06-12T16:43:43.423Z,17.17
2018-06-12T16:46:14.099Z,17.27
2018-06-12T16:48:56.951Z,16.13
2018-06-12T16:51:28.592Z,15.63
2018-06-12T16:54:06.014Z,13.57
2018-06-12T16:56:43.271Z,15.03
2018-06-12T16:59:14.467Z,14.10
2018-06-12T17:01:58.070Z,13.97
2018-06-12T17:54:26.247Z,5.10
2018-06-12T17:56:56.419Z,5.53
2018-06-12T17:59:31.369Z,4.27
2018-06-12T18:02:03.360Z,7.43
2018-06-12T18:04:34.490Z,8.93
2018-06-12T18:07:13.417Z,7.87
2018-06-12T18:09:48.753Z,7.60
2018-06-12T18:12:18.884Z,8.33
2018-06-12T18:14:48.954Z,8.03
2018-06-12T18:21:46.240Z,9.83
2018-06-12T18:27:13.027Z,9.93
2018-06-12T18:29:47.180Z,10.10
2018-06-12T18:32:18.955Z,12.30
2018-06-12T18:34:49.189Z,13.23
2018-06-12T18:37:19.865Z,11.70
2018-06-12T18:39:55.900Z,12.97
2018-06-12T18:42:29.104Z,13.63
2018-06-12T18:54:16.142Z,20.93
2018-06-12T18:56:53.662Z,24.93
2018-06-12T18:59:24.072Z,24.97
2018-06-12T19:02:31.370Z,25.60
2018-06-12T19:05:09.875Z,29.23
2018-06-12T19:07:53.321Z,28.93
2018-06-12T19:11:01.112Z,31.33
2018-06-12T19:13:37.420Z,31.30
2018-06-12T19:16:07.773Z,34.27
2018-06-12T19:27:49.123Z,35.97
2018-06-12T19:30:23.548Z,34.13
2018-06-12T19:32:59.741Z,37.20
2018-06-12T19:35:30.688Z,34.23
2018-06-12T19:38:06.016Z,39.70
2018-06-12T19:40:36.352Z,38.80
2018-06-12T19:43:06.286Z,39.60
2018-06-12T19:45:36.706Z,40.13
2018-06-12T19:48:29.044Z,35.60
2018-06-12T19:51:08.169Z,39.00
2018-06-12T19:53:43.580Z,38.10
2018-06-12T19:56:21.255Z,36.10
2018-06-12T19:58:51.816Z,39.10
2018-06-12T20:01:22.471Z,35.93
2018-06-12T20:07:56.457Z,32.53
2018-06-12T20:10:27.746Z,32.80
2018-06-12T20:12:58.902Z,25.33
2018-06-12T20:15:30.000Z,28.13
2018-06-12T20:18:00.323Z,28.33
2018-06-12T20:20:39.651Z,26.43
2018-06-12T20:24:38.014Z,24.07
2018-06-12T20:27:08.717Z,21.27
2018-06-12T20:29:39.428Z,24.10
2018-06-12T20:32:10.650Z,20.97
2018-06-12T20:34:46.000Z,22.07
2018-06-12T20:39:54.568Z,21.20
2018-06-12T20:42:26.105Z,24.43
2018-06-12T20:44:57.990Z,19.80
2018-06-12T20:47:33.644Z,17.63
2018-06-12T20:51:31.609Z,16.07
2018-06-12T21:02:43.705Z,20.93
2018-06-12T21:05:33.201Z,24.20
2018-06-12T21:08:18.553Z,26.80
2018-06-12T21:13:59.955Z,32.53
2018-06-12T21:16:30.150Z,28.93
2018-06-12T21:22:47.893Z,25.20
2018-06-12T21:25:18.029Z,26.93
2018-06-12T21:27:48.019Z,26.03
2018-06-12T21:30:19.189Z,27.33
2018-06-12T21:32:49.794Z,28.57
2018-06-12T21:35:20.028Z,32.00
2018-06-12T21:37:49.855Z,30.20
2018-06-12T21:40:19.775Z,33.47
2018-06-12T21:43:15.170Z,30.93
2018-06-12T21:45:45.113Z,29.77
2018-06-12T21:48:15.966Z,31.27
2018-06-12T21:50:45.946Z,28.80
2018-06-12T21:53:35.712Z,30.63
2018-06-12T21:56:14.948Z,27.10
2018-06-12T21:58:46.707Z,21.70
2018-06-12T22:01:18.418Z,25.13
2018-06-12T22:03:49.642Z,25.13
2018-06-12T22:06:19.743Z,22.60
2018-06-12T22:08:51.145Z,26.57
2018-06-12T22:11:21.177Z,25.37
2018-06-12T22:13:51.023Z,24.83
2018-06-12T22:16:23.178Z,25.60
2018-06-12T22:18:53.995Z,27.53
2018-06-12T22:21:23.933Z,30.23
2018-06-12T22:23:54.484Z,32.27
2018-06-12T22:26:24.656Z,27.57
2018-06-12T22:29:29.897Z,27.97
2018-06-12T22:32:00.106Z,26.23
2018-06-12T22:34:31.269Z,28.27
2018-06-12T22:37:07.491Z,25.10
2018-06-12T22:39:37.525Z,26.07
2018-06-12T22:42:07.316Z,24.23
2018-06-12T22:44:37.163Z,25.93
2018-06-12T22:47:06.994Z,24.03
2018-06-12T22:49:36.897Z,24.00
2018-06-12T22:52:20.672Z,22.97
2018-06-12T22:54:50.499Z,23.70
2018-06-12T22:57:20.396Z,22.70
2018-06-12T22:59:50.684Z,23.17
2018-06-12T23:02:25.068Z,24.13
2018-06-12T23:04:55.040Z,23.20
2018-06-12T23:07:25.129Z,23.73
2018-06-12T23:09:54.965Z,24.30
2018-06-12T23:12:25.073Z,24.97
2018-06-12T23:14:54.864Z,24.67
2018-06-12T23:17:25.246Z,27.00
2018-06-12T23:20:06.326Z,25.27
2018-06-12T23:22:36.315Z,24.20
2018-06-12T23:25:06.205Z,24.40
2018-06-12T23:27:38.751Z,21.57
2018-06-12T23:30:08.863Z,21.93
2018-06-12T23:32:39.868Z,20.87
2018-06-12T23:35:09.591Z,18.70
2018-06-12T23:37:43.953Z,19.10
2018-06-12T23:40:13.828Z,21.60
2018-06-12T23:46:09.530Z,20.57
2018-06-12T23:48:39.816Z,22.53
2018-06-12T23:51:10.267Z,18.10
2018-06-12T23:53:42.857Z,20.37
2018-06-12T23:56:13.266Z,19.43
2018-06-12T23:58:44.518Z,19.30
